sensor_id;sensor_type;location;lat;lon;timestamp;P1;durP1;ratioP1;P2;durP2;ratioP2
27145;SDS011;17980;51.744;7.190;2023-11-21T00:01:49;1.00;;;0.50;;
27145;SDS011;17980;51.744;7.190;2023-11-21T00:04:16;1.00;;;0.80;;
27145;SDS011;17980;51.744;7.190;2023-11-21T00:06:43;0.80;;;0.57;;
27145;SDS011;17980;51.744;7.190;2023-11-21T00:09:20;0.70;;;0.63;;
27145;SDS011;17980;51.744;7.190;2023-11-21T00:11:48;0.90;;;0.50;;
27145;SDS011;17980;51.744;7.190;2023-11-21T00:14:15;0.47;;;0.47;;
27145;SDS011;17980;51.744;7.190;2023-11-21T00:16:42;1.83;;;0.63;;
27145;SDS011;17980;51.744;7.190;2023-11-21T00:19:19;1.03;;;0.63;;
27145;SDS011;17980;51.744;7.190;2023-11-21T00:21:47;2.23;;;0.77;;
27145;SDS011;17980;51.744;7.190;2023-11-21T00:24:14;0.40;;;0.40;;
27145;SDS011;17980;51.744;7.190;2023-11-21T00:26:41;2.53;;;0.53;;
27145;SDS011;17980;51.744;7.190;2023-11-21T00:29:18;1.43;;;0.43;;
27145;SDS011;17980;51.744;7.190;2023-11-21T00:31:46;0.77;;;0.63;;
27145;SDS011;17980;51.744;7.190;2023-11-21T00:34:13;1.27;;;0.70;;
27145;SDS011;17980;51.744;7.190;2023-11-21T00:36:41;1.13;;;0.80;;
27145;SDS011;17980;51.744;7.190;2023-11-21T00:39:18;0.43;;;0.43;;
27145;SDS011;17980;51.744;7.190;2023-11-21T00:41:45;1.23;;;0.80;;
27145;SDS011;17980;51.744;7.190;2023-11-21T00:44:12;2.73;;;0.97;;
27145;SDS011;17980;51.744;7.190;2023-11-21T00:46:40;0.50;;;0.50;;
27145;SDS011;17980;51.744;7.190;2023-11-21T00:49:17;1.13;;;0.50;;
27145;SDS011;17980;51.744;7.190;2023-11-21T00:51:45;1.00;;;0.53;;
27145;SDS011;17980;51.744;7.190;2023-11-21T00:54:12;0.93;;;0.63;;
27145;SDS011;17980;51.744;7.190;2023-11-21T00:56:39;3.80;;;0.80;;
27145;SDS011;17980;51.744;7.190;2023-11-21T00:59:16;1.43;;;0.70;;
27145;SDS011;17980;51.744;7.190;2023-11-21T01:01:43;1.00;;;0.60;;
27145;SDS011;17980;51.744;7.190;2023-11-21T01:04:11;0.70;;;0.70;;
27145;SDS011;17980;51.744;7.190;2023-11-21T01:06:39;1.80;;;0.90;;
27145;SDS011;17980;51.744;7.190;2023-11-21T01:09:22;0.87;;;0.70;;
27145;SDS011;17980;51.744;7.190;2023-11-21T01:11:52;1.33;;;1.10;;
27145;SDS011;17980;51.744;7.190;2023-11-21T01:14:23;0.60;;;0.60;;
27145;SDS011;17980;51.744;7.190;2023-11-21T01:16:53;0.70;;;0.70;;
27145;SDS011;17980;51.744;7.190;2023-11-21T01:22:08;4.97;;;1.57;;
27145;SDS011;17980;51.744;7.190;2023-11-21T01:24:37;1.83;;;1.10;;
27145;SDS011;17980;51.744;7.190;2023-11-21T01:27:05;1.53;;;0.77;;
27145;SDS011;17980;51.744;7.190;2023-11-21T01:29:42;2.17;;;1.73;;
27145;SDS011;17980;51.744;7.190;2023-11-21T01:32:09;0.53;;;0.53;;
27145;SDS011;17980;51.744;7.190;2023-11-21T01:34:37;3.60;;;1.27;;
27145;SDS011;17980;51.744;7.190;2023-11-21T01:37:05;2.30;;;1.20;;
27145;SDS011;17980;51.744;7.190;2023-11-21T01:39:42;2.67;;;1.30;;
27145;SDS011;17980;51.744;7.190;2023-11-21T01:42:10;1.93;;;1.33;;
27145;SDS011;17980;51.744;7.190;2023-11-21T01:44:38;2.77;;;1.70;;
27145;SDS011;17980;51.744;7.190;2023-11-21T01:47:06;3.17;;;1.30;;
27145;SDS011;17980;51.744;7.190;2023-11-21T01:49:44;1.73;;;0.90;;
27145;SDS011;17980;51.744;7.190;2023-11-21T01:52:13;1.97;;;0.90;;
27145;SDS011;17980;51.744;7.190;2023-11-21T01:54:41;0.60;;;0.57;;
27145;SDS011;17980;51.744;7.190;2023-11-21T01:57:09;2.03;;;0.93;;
27145;SDS011;17980;51.744;7.190;2023-11-21T01:59:37;1.07;;;0.93;;
27145;SDS011;17980;51.744;7.190;2023-11-21T02:02:08;0.90;;;0.60;;
27145;SDS011;17980;51.744;7.190;2023-11-21T02:04:35;1.43;;;0.80;;
27145;SDS011;17980;51.744;7.190;2023-11-21T02:07:13;0.93;;;0.67;;
27145;SDS011;17980;51.744;7.190;2023-11-21T02:09:40;0.80;;;0.80;;
27145;SDS011;17980;51.744;7.190;2023-11-21T02:12:08;1.70;;;1.03;;
27145;SDS011;17980;51.744;7.190;2023-11-21T02:14:36;1.23;;;0.90;;
27145;SDS011;17980;51.744;7.190;2023-11-21T02:17:13;1.10;;;0.63;;
27145;SDS011;17980;51.744;7.190;2023-11-21T02:19:40;0.70;;;0.70;;
27145;SDS011;17980;51.744;7.190;2023-11-21T02:22:08;1.77;;;1.30;;
27145;SDS011;17980;51.744;7.190;2023-11-21T02:24:36;4.33;;;1.10;;
27145;SDS011;17980;51.744;7.190;2023-11-21T02:27:19;0.70;;;0.70;;
27145;SDS011;17980;51.744;7.190;2023-11-21T02:29:48;1.77;;;1.10;;
27145;SDS011;17980;51.744;7.190;2023-11-21T02:32:16;2.27;;;1.20;;
27145;SDS011;17980;51.744;7.190;2023-11-21T02:34:45;2.73;;;1.27;;
27145;SDS011;17980;51.744;7.190;2023-11-21T02:37:22;2.50;;;1.23;;
27145;SDS011;17980;51.744;7.190;2023-11-21T02:39:49;1.50;;;1.10;;
27145;SDS011;17980;51.744;7.190;2023-11-21T02:42:16;1.30;;;0.80;;
27145;SDS011;17980;51.744;7.190;2023-11-21T02:44:44;2.00;;;1.20;;
27145;SDS011;17980;51.744;7.190;2023-11-21T02:47:27;1.27;;;0.80;;
27145;SDS011;17980;51.744;7.190;2023-11-21T02:49:54;0.50;;;0.50;;
27145;SDS011;17980;51.744;7.190;2023-11-21T02:52:22;0.70;;;0.50;;
27145;SDS011;17980;51.744;7.190;2023-11-21T02:54:49;1.20;;;0.77;;
27145;SDS011;17980;51.744;7.190;2023-11-21T02:57:26;1.20;;;0.70;;
27145;SDS011;17980;51.744;7.190;2023-11-21T02:59:53;0.77;;;0.63;;
27145;SDS011;17980;51.744;7.190;2023-11-21T03:02:21;2.10;;;0.73;;
27145;SDS011;17980;51.744;7.190;2023-11-21T03:04:48;1.33;;;0.90;;
27145;SDS011;17980;51.744;7.190;2023-11-21T03:07:27;0.57;;;0.50;;
27145;SDS011;17980;51.744;7.190;2023-11-21T03:09:54;0.97;;;0.83;;
27145;SDS011;17980;51.744;7.190;2023-11-21T03:12:22;1.10;;;0.90;;
27145;SDS011;17980;51.744;7.190;2023-11-21T03:14:49;0.70;;;0.57;;
27145;SDS011;17980;51.744;7.190;2023-11-21T03:17:26;1.37;;;1.10;;
27145;SDS011;17980;51.744;7.190;2023-11-21T03:19:54;1.33;;;0.90;;
27145;SDS011;17980;51.744;7.190;2023-11-21T03:22:37;1.53;;;0.93;;
27145;SDS011;17980;51.744;7.190;2023-11-21T03:25:05;1.60;;;1.03;;
27145;SDS011;17980;51.744;7.190;2023-11-21T03:27:45;1.03;;;0.87;;
27145;SDS011;17980;51.744;7.190;2023-11-21T03:30:13;1.17;;;1.03;;
27145;SDS011;17980;51.744;7.190;2023-11-21T03:32:40;0.63;;;0.50;;
27145;SDS011;17980;51.744;7.190;2023-11-21T03:35:17;1.00;;;0.73;;
27145;SDS011;17980;51.744;7.190;2023-11-21T03:37:46;2.37;;;1.33;;
27145;SDS011;17980;51.744;7.190;2023-11-21T03:40:14;1.17;;;0.90;;
27145;SDS011;17980;51.744;7.190;2023-11-21T03:42:41;1.23;;;1.00;;
27145;SDS011;17980;51.744;7.190;2023-11-21T03:45:18;1.40;;;0.90;;
27145;SDS011;17980;51.744;7.190;2023-11-21T03:47:46;1.23;;;0.60;;
27145;SDS011;17980;51.744;7.190;2023-11-21T03:50:14;0.87;;;0.87;;
27145;SDS011;17980;51.744;7.190;2023-11-21T03:52:41;1.20;;;1.10;;
27145;SDS011;17980;51.744;7.190;2023-11-21T03:55:19;1.53;;;0.97;;
27145;SDS011;17980;51.744;7.190;2023-11-21T03:57:46;2.50;;;1.27;;
27145;SDS011;17980;51.744;7.190;2023-11-21T04:00:14;0.67;;;0.67;;
27145;SDS011;17980;51.744;7.190;2023-11-21T04:02:52;0.90;;;0.90;;
27145;SDS011;17980;51.744;7.190;2023-11-21T04:05:20;1.30;;;1.20;;
27145;SDS011;17980;51.744;7.190;2023-11-21T04:07:57;1.47;;;0.87;;
27145;SDS011;17980;51.744;7.190;2023-11-21T04:10:24;1.23;;;0.73;;
27145;SDS011;17980;51.744;7.190;2023-11-21T04:12:51;0.50;;;0.43;;
27145;SDS011;17980;51.744;7.190;2023-11-21T04:15:19;1.20;;;0.90;;
27145;SDS011;17980;51.744;7.190;2023-11-21T04:17:46;1.13;;;1.03;;
27145;SDS011;17980;51.744;7.190;2023-11-21T04:20:23;0.70;;;0.37;;
27145;SDS011;17980;51.744;7.190;2023-11-21T04:22:51;0.40;;;0.40;;
27145;SDS011;17980;51.744;7.190;2023-11-21T04:25:19;2.53;;;1.03;;
27145;SDS011;17980;51.744;7.190;2023-11-21T04:27:48;1.30;;;0.67;;
27145;SDS011;17980;51.744;7.190;2023-11-21T04:30:25;0.50;;;0.50;;
27145;SDS011;17980;51.744;7.190;2023-11-21T04:32:53;0.50;;;0.50;;
27145;SDS011;17980;51.744;7.190;2023-11-21T04:35:20;1.43;;;0.90;;
27145;SDS011;17980;51.744;7.190;2023-11-21T04:37:47;1.00;;;0.70;;
27145;SDS011;17980;51.744;7.190;2023-11-21T04:40:25;1.80;;;0.90;;
27145;SDS011;17980;51.744;7.190;2023-11-21T04:42:52;1.37;;;0.90;;
27145;SDS011;17980;51.744;7.190;2023-11-21T04:45:20;1.87;;;0.83;;
27145;SDS011;17980;51.744;7.190;2023-11-21T04:47:47;1.67;;;0.73;;
27145;SDS011;17980;51.744;7.190;2023-11-21T04:50:24;1.97;;;0.87;;
27145;SDS011;17980;51.744;7.190;2023-11-21T04:52:52;1.10;;;0.80;;
27145;SDS011;17980;51.744;7.190;2023-11-21T04:55:20;3.27;;;1.27;;
27145;SDS011;17980;51.744;7.190;2023-11-21T04:57:47;1.37;;;0.90;;
27145;SDS011;17980;51.744;7.190;2023-11-21T05:00:24;1.27;;;0.93;;
27145;SDS011;17980;51.744;7.190;2023-11-21T05:02:52;1.83;;;0.83;;
27145;SDS011;17980;51.744;7.190;2023-11-21T05:05:19;2.40;;;1.10;;
27145;SDS011;17980;51.744;7.190;2023-11-21T05:07:47;0.70;;;0.70;;
27145;SDS011;17980;51.744;7.190;2023-11-21T05:10:23;1.60;;;0.90;;
27145;SDS011;17980;51.744;7.190;2023-11-21T05:12:51;1.70;;;1.30;;
27145;SDS011;17980;51.744;7.190;2023-11-21T05:15:18;2.07;;;1.20;;
27145;SDS011;17980;51.744;7.190;2023-11-21T05:17:46;1.23;;;0.87;;
27145;SDS011;17980;51.744;7.190;2023-11-21T05:20:23;1.30;;;0.80;;
27145;SDS011;17980;51.744;7.190;2023-11-21T05:22:51;1.20;;;0.83;;
27145;SDS011;17980;51.744;7.190;2023-11-21T05:25:18;3.43;;;1.27;;
27145;SDS011;17980;51.744;7.190;2023-11-21T05:27:45;3.10;;;1.50;;
27145;SDS011;17980;51.744;7.190;2023-11-21T05:32:58;1.83;;;1.00;;
27145;SDS011;17980;51.744;7.190;2023-11-21T05:35:26;1.97;;;1.27;;
27145;SDS011;17980;51.744;7.190;2023-11-21T05:37:53;2.50;;;1.23;;
27145;SDS011;17980;51.744;7.190;2023-11-21T05:40:30;1.90;;;1.23;;
27145;SDS011;17980;51.744;7.190;2023-11-21T05:42:58;1.27;;;1.10;;
27145;SDS011;17980;51.744;7.190;2023-11-21T05:45:25;3.03;;;1.23;;
27145;SDS011;17980;51.744;7.190;2023-11-21T05:47:54;1.87;;;1.10;;
27145;SDS011;17980;51.744;7.190;2023-11-21T05:50:31;1.03;;;0.93;;
27145;SDS011;17980;51.744;7.190;2023-11-21T05:52:58;1.43;;;1.03;;
27145;SDS011;17980;51.744;7.190;2023-11-21T05:55:27;1.30;;;1.03;;
27145;SDS011;17980;51.744;7.190;2023-11-21T05:57:54;2.60;;;1.03;;
27145;SDS011;17980;51.744;7.190;2023-11-21T06:00:31;1.27;;;0.90;;
27145;SDS011;17980;51.744;7.190;2023-11-21T06:02:59;1.33;;;1.10;;
27145;SDS011;17980;51.744;7.190;2023-11-21T06:05:26;3.30;;;1.23;;
27145;SDS011;17980;51.744;7.190;2023-11-21T06:07:54;0.80;;;0.80;;
27145;SDS011;17980;51.744;7.190;2023-11-21T06:10:37;2.53;;;1.40;;
27145;SDS011;17980;51.744;7.190;2023-11-21T06:15:41;2.03;;;1.40;;
27145;SDS011;17980;51.744;7.190;2023-11-21T06:18:09;2.40;;;1.37;;
27145;SDS011;17980;51.744;7.190;2023-11-21T06:20:46;1.30;;;0.83;;
27145;SDS011;17980;51.744;7.190;2023-11-21T06:25:49;3.50;;;3.03;;
27145;SDS011;17980;51.744;7.190;2023-11-21T06:28:17;5.40;;;3.17;;
27145;SDS011;17980;51.744;7.190;2023-11-21T06:30:54;10.00;;;5.60;;
27145;SDS011;17980;51.744;7.190;2023-11-21T06:33:21;13.67;;;8.40;;
27145;SDS011;17980;51.744;7.190;2023-11-21T06:35:48;11.33;;;5.60;;
27145;SDS011;17980;51.744;7.190;2023-11-21T06:38:16;9.53;;;4.57;;
27145;SDS011;17980;51.744;7.190;2023-11-21T06:40:52;6.80;;;3.30;;
27145;SDS011;17980;51.744;7.190;2023-11-21T06:43:20;3.63;;;3.07;;
27145;SDS011;17980;51.744;7.190;2023-11-21T06:45:47;6.53;;;3.00;;
27145;SDS011;17980;51.744;7.190;2023-11-21T06:48:24;3.20;;;1.93;;
27145;SDS011;17980;51.744;7.190;2023-11-21T06:50:52;2.17;;;1.70;;
27145;SDS011;17980;51.744;7.190;2023-11-21T06:53:19;3.40;;;2.90;;
27145;SDS011;17980;51.744;7.190;2023-11-21T06:55:46;4.77;;;2.43;;
27145;SDS011;17980;51.744;7.190;2023-11-21T06:58:14;3.53;;;2.07;;
27145;SDS011;17980;51.744;7.190;2023-11-21T07:00:51;5.20;;;2.77;;
27145;SDS011;17980;51.744;7.190;2023-11-21T07:03:18;5.57;;;3.50;;
27145;SDS011;17980;51.744;7.190;2023-11-21T07:05:45;6.27;;;3.30;;
27145;SDS011;17980;51.744;7.190;2023-11-21T07:08:22;5.03;;;2.53;;
27145;SDS011;17980;51.744;7.190;2023-11-21T07:10:50;5.47;;;1.83;;
27145;SDS011;17980;51.744;7.190;2023-11-21T07:13:18;4.13;;;1.97;;
27145;SDS011;17980;51.744;7.190;2023-11-21T07:15:48;3.40;;;1.90;;
27145;SDS011;17980;51.744;7.190;2023-11-21T07:18:15;5.17;;;2.63;;
27145;SDS011;17980;51.744;7.190;2023-11-21T07:20:52;11.20;;;2.87;;
27145;SDS011;17980;51.744;7.190;2023-11-21T07:23:20;7.03;;;2.90;;
27145;SDS011;17980;51.744;7.190;2023-11-21T07:25:48;2.97;;;2.17;;
27145;SDS011;17980;51.744;7.190;2023-11-21T07:28:16;3.13;;;1.77;;
27145;SDS011;17980;51.744;7.190;2023-11-21T07:30:52;2.17;;;1.47;;
27145;SDS011;17980;51.744;7.190;2023-11-21T07:33:20;6.90;;;2.13;;
27145;SDS011;17980;51.744;7.190;2023-11-21T07:35:47;4.40;;;2.67;;
27145;SDS011;17980;51.744;7.190;2023-11-21T07:38:14;2.87;;;2.50;;
27145;SDS011;17980;51.744;7.190;2023-11-21T07:40:51;4.57;;;2.87;;
27145;SDS011;17980;51.744;7.190;2023-11-21T07:43:19;2.50;;;1.57;;
27145;SDS011;17980;51.744;7.190;2023-11-21T07:45:46;3.30;;;1.10;;
27145;SDS011;17980;51.744;7.190;2023-11-21T07:48:13;3.00;;;1.97;;
27145;SDS011;17980;51.744;7.190;2023-11-21T07:50:50;3.90;;;1.80;;
27145;SDS011;17980;51.744;7.190;2023-11-21T07:53:18;4.03;;;2.37;;
27145;SDS011;17980;51.744;7.190;2023-11-21T07:55:45;3.00;;;1.73;;
27145;SDS011;17980;51.744;7.190;2023-11-21T07:58:12;2.80;;;1.83;;
27145;SDS011;17980;51.744;7.190;2023-11-21T08:00:49;3.57;;;1.67;;
27145;SDS011;17980;51.744;7.190;2023-11-21T08:03:17;4.73;;;2.37;;
27145;SDS011;17980;51.744;7.190;2023-11-21T08:05:45;1.57;;;1.10;;
27145;SDS011;17980;51.744;7.190;2023-11-21T08:08:12;3.50;;;2.33;;
27145;SDS011;17980;51.744;7.190;2023-11-21T08:10:49;3.90;;;1.63;;
27145;SDS011;17980;51.744;7.190;2023-11-21T08:13:20;4.07;;;1.60;;
27145;SDS011;17980;51.744;7.190;2023-11-21T08:15:47;2.33;;;1.93;;
27145;SDS011;17980;51.744;7.190;2023-11-21T08:20:50;3.27;;;1.83;;
27145;SDS011;17980;51.744;7.190;2023-11-21T08:23:18;4.27;;;2.10;;
27145;SDS011;17980;51.744;7.190;2023-11-21T08:25:55;2.53;;;2.10;;
27145;SDS011;17980;51.744;7.190;2023-11-21T08:28:22;1.73;;;1.33;;
27145;SDS011;17980;51.744;7.190;2023-11-21T08:30:59;1.67;;;1.13;;
27145;SDS011;17980;51.744;7.190;2023-11-21T08:33:27;1.97;;;1.50;;
27145;SDS011;17980;51.744;7.190;2023-11-21T08:35:55;3.07;;;2.03;;
27145;SDS011;17980;51.744;7.190;2023-11-21T08:38:37;2.40;;;1.63;;
27145;SDS011;17980;51.744;7.190;2023-11-21T08:41:07;2.33;;;1.53;;
27145;SDS011;17980;51.744;7.190;2023-11-21T08:43:44;2.83;;;1.70;;
27145;SDS011;17980;51.744;7.190;2023-11-21T08:46:11;1.37;;;1.20;;
27145;SDS011;17980;51.744;7.190;2023-11-21T08:48:50;2.17;;;1.93;;
27145;SDS011;17980;51.744;7.190;2023-11-21T08:51:18;1.83;;;1.67;;
27145;SDS011;17980;51.744;7.190;2023-11-21T08:53:46;2.73;;;2.10;;
27145;SDS011;17980;51.744;7.190;2023-11-21T08:56:13;3.30;;;2.60;;
27145;SDS011;17980;51.744;7.190;2023-11-21T08:58:50;7.67;;;2.93;;
27145;SDS011;17980;51.744;7.190;2023-11-21T09:01:18;3.40;;;2.70;;
27145;SDS011;17980;51.744;7.190;2023-11-21T09:03:46;2.53;;;1.80;;
27145;SDS011;17980;51.744;7.190;2023-11-21T09:06:13;3.67;;;2.43;;
27145;SDS011;17980;51.744;7.190;2023-11-21T09:08:50;1.67;;;0.97;;
27145;SDS011;17980;51.744;7.190;2023-11-21T09:11:17;1.80;;;1.13;;
27145;SDS011;17980;51.744;7.190;2023-11-21T09:13:45;4.60;;;2.43;;
27145;SDS011;17980;51.744;7.190;2023-11-21T09:16:25;3.70;;;2.37;;
27145;SDS011;17980;51.744;7.190;2023-11-21T09:18:53;6.50;;;4.30;;
27145;SDS011;17980;51.744;7.190;2023-11-21T09:21:35;11.03;;;5.70;;
27145;SDS011;17980;51.744;7.190;2023-11-21T09:24:06;5.43;;;2.27;;
27145;SDS011;17980;51.744;7.190;2023-11-21T09:26:36;5.10;;;3.43;;
27145;SDS011;17980;51.744;7.190;2023-11-21T09:29:13;4.07;;;3.00;;
27145;SDS011;17980;51.744;7.190;2023-11-21T09:31:41;3.23;;;2.47;;
27145;SDS011;17980;51.744;7.190;2023-11-21T09:34:10;2.27;;;2.07;;
27145;SDS011;17980;51.744;7.190;2023-11-21T09:36:37;3.23;;;2.47;;
27145;SDS011;17980;51.744;7.190;2023-11-21T09:39:14;4.90;;;3.53;;
27145;SDS011;17980;51.744;7.190;2023-11-21T09:41:43;4.70;;;3.13;;
27145;SDS011;17980;51.744;7.190;2023-11-21T09:44:13;4.30;;;2.80;;
27145;SDS011;17980;51.744;7.190;2023-11-21T09:46:42;2.83;;;1.13;;
27145;SDS011;17980;51.744;7.190;2023-11-21T09:49:25;4.73;;;2.17;;
27145;SDS011;17980;51.744;7.190;2023-11-21T09:51:55;3.80;;;2.17;;
27145;SDS011;17980;51.744;7.190;2023-11-21T09:54:23;3.03;;;1.97;;
27145;SDS011;17980;51.744;7.190;2023-11-21T09:56:52;3.30;;;2.53;;
27145;SDS011;17980;51.744;7.190;2023-11-21T09:59:30;4.60;;;1.67;;
27145;SDS011;17980;51.744;7.190;2023-11-21T10:01:58;3.73;;;2.13;;
27145;SDS011;17980;51.744;7.190;2023-11-21T10:04:26;2.20;;;1.67;;
27145;SDS011;17980;51.744;7.190;2023-11-21T10:06:54;4.17;;;2.57;;
27145;SDS011;17980;51.744;7.190;2023-11-21T10:09:21;3.60;;;2.10;;
27145;SDS011;17980;51.744;7.190;2023-11-21T10:11:52;4.70;;;2.70;;
27145;SDS011;17980;51.744;7.190;2023-11-21T10:14:22;2.20;;;1.60;;
27145;SDS011;17980;51.744;7.190;2023-11-21T10:16:54;2.37;;;1.80;;
27145;SDS011;17980;51.744;7.190;2023-11-21T10:19:31;3.67;;;2.07;;
27145;SDS011;17980;51.744;7.190;2023-11-21T10:21:59;4.83;;;1.40;;
27145;SDS011;17980;51.744;7.190;2023-11-21T10:24:43;3.17;;;1.47;;
27145;SDS011;17980;51.744;7.190;2023-11-21T10:27:11;1.47;;;1.27;;
27145;SDS011;17980;51.744;7.190;2023-11-21T10:32:28;1.80;;;1.30;;
27145;SDS011;17980;51.744;7.190;2023-11-21T10:34:58;3.33;;;1.90;;
27145;SDS011;17980;51.744;7.190;2023-11-21T10:37:26;3.90;;;1.83;;
27145;SDS011;17980;51.744;7.190;2023-11-21T10:40:03;2.60;;;1.27;;
27145;SDS011;17980;51.744;7.190;2023-11-21T10:45:09;2.47;;;1.37;;
27145;SDS011;17980;51.744;7.190;2023-11-21T10:47:39;3.80;;;1.67;;
27145;SDS011;17980;51.744;7.190;2023-11-21T10:50:08;5.83;;;2.17;;
27145;SDS011;17980;51.744;7.190;2023-11-21T10:52:45;4.80;;;2.27;;
27145;SDS011;17980;51.744;7.190;2023-11-21T10:55:16;3.93;;;2.00;;
27145;SDS011;17980;51.744;7.190;2023-11-21T10:57:53;3.00;;;2.00;;
27145;SDS011;17980;51.744;7.190;2023-11-21T11:00:23;2.27;;;1.50;;
27145;SDS011;17980;51.744;7.190;2023-11-21T11:03:01;3.30;;;1.17;;
27145;SDS011;17980;51.744;7.190;2023-11-21T11:05:30;2.07;;;1.53;;
27145;SDS011;17980;51.744;7.190;2023-11-21T11:07:59;2.90;;;1.53;;
27145;SDS011;17980;51.744;7.190;2023-11-21T11:10:28;2.43;;;1.33;;
27145;SDS011;17980;51.744;7.190;2023-11-21T11:13:06;2.27;;;1.53;;
27145;SDS011;17980;51.744;7.190;2023-11-21T11:15:34;3.33;;;1.63;;
27145;SDS011;17980;51.744;7.190;2023-11-21T11:18:02;4.00;;;1.90;;
27145;SDS011;17980;51.744;7.190;2023-11-21T11:20:33;2.23;;;1.20;;
27145;SDS011;17980;51.744;7.190;2023-11-21T11:23:17;3.80;;;1.67;;
27145;SDS011;17980;51.744;7.190;2023-11-21T11:25:56;3.37;;;1.30;;
27145;SDS011;17980;51.744;7.190;2023-11-21T11:28:38;2.43;;;1.60;;
27145;SDS011;17980;51.744;7.190;2023-11-21T11:33:45;3.33;;;1.77;;
27145;SDS011;17980;51.744;7.190;2023-11-21T11:36:17;2.37;;;1.73;;
27145;SDS011;17980;51.744;7.190;2023-11-21T11:38:47;1.90;;;1.30;;
27145;SDS011;17980;51.744;7.190;2023-11-21T11:43:51;1.30;;;1.20;;
27145;SDS011;17980;51.744;7.190;2023-11-21T11:46:19;1.57;;;1.23;;
27145;SDS011;17980;51.744;7.190;2023-11-21T11:48:48;1.47;;;0.80;;
27145;SDS011;17980;51.744;7.190;2023-11-21T11:51:17;1.60;;;1.30;;
27145;SDS011;17980;51.744;7.190;2023-11-21T11:53:54;1.53;;;0.97;;
27145;SDS011;17980;51.744;7.190;2023-11-21T11:56:23;5.13;;;1.50;;
27145;SDS011;17980;51.744;7.190;2023-11-21T11:58:52;1.67;;;0.97;;
27145;SDS011;17980;51.744;7.190;2023-11-21T12:01:21;0.80;;;0.80;;
27145;SDS011;17980;51.744;7.190;2023-11-21T12:06:57;2.77;;;1.37;;
27145;SDS011;17980;51.744;7.190;2023-11-21T12:09:31;1.10;;;0.97;;
27145;SDS011;17980;51.744;7.190;2023-11-21T12:11:58;3.13;;;1.80;;
27145;SDS011;17980;51.744;7.190;2023-11-21T12:14:36;1.93;;;0.87;;
27145;SDS011;17980;51.744;7.190;2023-11-21T12:19:39;3.97;;;1.10;;
27145;SDS011;17980;51.744;7.190;2023-11-21T12:22:07;6.03;;;1.93;;
27145;SDS011;17980;51.744;7.190;2023-11-21T12:24:44;1.47;;;0.83;;
27145;SDS011;17980;51.744;7.190;2023-11-21T12:27:12;2.67;;;1.33;;
27145;SDS011;17980;51.744;7.190;2023-11-21T12:29:49;4.00;;;1.63;;
27145;SDS011;17980;51.744;7.190;2023-11-21T12:32:16;2.23;;;1.27;;
27145;SDS011;17980;51.744;7.190;2023-11-21T12:34:53;1.10;;;1.00;;
27145;SDS011;17980;51.744;7.190;2023-11-21T12:37:21;1.97;;;1.30;;
27145;SDS011;17980;51.744;7.190;2023-11-21T12:39:48;3.50;;;1.57;;
27145;SDS011;17980;51.744;7.190;2023-11-21T12:42:15;1.93;;;1.17;;
27145;SDS011;17980;51.744;7.190;2023-11-21T12:45:06;1.63;;;1.47;;
27145;SDS011;17980;51.744;7.190;2023-11-21T12:47:38;2.33;;;1.60;;
27145;SDS011;17980;51.744;7.190;2023-11-21T12:50:07;1.67;;;0.87;;
27145;SDS011;17980;51.744;7.190;2023-11-21T12:52:45;2.90;;;1.03;;
27145;SDS011;17980;51.744;7.190;2023-11-21T12:55:14;1.70;;;1.13;;
27145;SDS011;17980;51.744;7.190;2023-11-21T12:57:43;1.83;;;1.07;;
27145;SDS011;17980;51.744;7.190;2023-11-21T13:00:26;0.83;;;0.83;;
27145;SDS011;17980;51.744;7.190;2023-11-21T13:02:56;1.77;;;1.37;;
27145;SDS011;17980;51.744;7.190;2023-11-21T13:05:33;2.03;;;1.43;;
27145;SDS011;17980;51.744;7.190;2023-11-21T13:08:04;0.83;;;0.80;;
27145;SDS011;17980;51.744;7.190;2023-11-21T13:10:34;0.63;;;0.63;;
27145;SDS011;17980;51.744;7.190;2023-11-21T13:13:12;1.27;;;0.80;;
27145;SDS011;17980;51.744;7.190;2023-11-21T13:15:47;1.23;;;0.87;;
27145;SDS011;17980;51.744;7.190;2023-11-21T13:18:31;0.97;;;0.80;;
27145;SDS011;17980;51.744;7.190;2023-11-21T13:20:59;2.33;;;1.30;;
27145;SDS011;17980;51.744;7.190;2023-11-21T13:23:40;1.97;;;1.10;;
27145;SDS011;17980;51.744;7.190;2023-11-21T13:26:13;1.23;;;0.63;;
27145;SDS011;17980;51.744;7.190;2023-11-21T13:28:50;6.57;;;1.07;;
27145;SDS011;17980;51.744;7.190;2023-11-21T13:31:24;3.70;;;1.10;;
27145;SDS011;17980;51.744;7.190;2023-11-21T13:34:14;2.20;;;1.10;;
27145;SDS011;17980;51.744;7.190;2023-11-21T13:36:43;3.03;;;1.63;;
27145;SDS011;17980;51.744;7.190;2023-11-21T13:39:20;8.27;;;3.93;;
27145;SDS011;17980;51.744;7.190;2023-11-21T13:41:47;4.70;;;2.57;;
27145;SDS011;17980;51.744;7.190;2023-11-21T13:44:24;1.90;;;1.70;;
27145;SDS011;17980;51.744;7.190;2023-11-21T13:46:54;1.20;;;1.10;;
27145;SDS011;17980;51.744;7.190;2023-11-21T13:49:24;2.50;;;1.47;;
27145;SDS011;17980;51.744;7.190;2023-11-21T13:51:52;1.20;;;0.60;;
27145;SDS011;17980;51.744;7.190;2023-11-21T13:54:29;2.80;;;1.23;;
27145;SDS011;17980;51.744;7.190;2023-11-21T13:56:56;0.47;;;0.37;;
27145;SDS011;17980;51.744;7.190;2023-11-21T13:59:25;1.37;;;0.87;;
27145;SDS011;17980;51.744;7.190;2023-11-21T14:01:54;0.73;;;0.60;;
27145;SDS011;17980;51.744;7.190;2023-11-21T14:04:31;1.17;;;0.63;;
27145;SDS011;17980;51.744;7.190;2023-11-21T14:07:07;2.23;;;0.70;;
27145;SDS011;17980;51.744;7.190;2023-11-21T14:09:42;1.50;;;1.10;;
27145;SDS011;17980;51.744;7.190;2023-11-21T14:12:09;1.43;;;0.80;;
27145;SDS011;17980;51.744;7.190;2023-11-21T14:14:46;1.37;;;0.73;;
27145;SDS011;17980;51.744;7.190;2023-11-21T14:17:14;1.87;;;0.87;;
27145;SDS011;17980;51.744;7.190;2023-11-21T14:19:42;1.37;;;0.70;;
27145;SDS011;17980;51.744;7.190;2023-11-21T14:22:10;0.63;;;0.60;;
27145;SDS011;17980;51.744;7.190;2023-11-21T14:24:46;0.53;;;0.53;;
27145;SDS011;17980;51.744;7.190;2023-11-21T14:27:16;0.70;;;0.60;;
27145;SDS011;17980;51.744;7.190;2023-11-21T14:29:43;1.00;;;0.67;;
27145;SDS011;17980;51.744;7.190;2023-11-21T14:32:11;0.33;;;0.33;;
27145;SDS011;17980;51.744;7.190;2023-11-21T14:34:48;0.53;;;0.50;;
27145;SDS011;17980;51.744;7.190;2023-11-21T14:37:15;1.57;;;1.00;;
27145;SDS011;17980;51.744;7.190;2023-11-21T14:39:43;1.27;;;0.83;;
27145;SDS011;17980;51.744;7.190;2023-11-21T14:42:12;0.77;;;0.60;;
27145;SDS011;17980;51.744;7.190;2023-11-21T14:44:49;1.33;;;0.70;;
27145;SDS011;17980;51.744;7.190;2023-11-21T14:47:17;0.83;;;0.60;;
27145;SDS011;17980;51.744;7.190;2023-11-21T14:49:47;0.50;;;0.50;;
27145;SDS011;17980;51.744;7.190;2023-11-21T14:52:18;1.47;;;0.50;;
27145;SDS011;17980;51.744;7.190;2023-11-21T14:54:55;1.10;;;0.90;;
27145;SDS011;17980;51.744;7.190;2023-11-21T14:57:25;0.73;;;0.67;;
27145;SDS011;17980;51.744;7.190;2023-11-21T14:59:52;1.40;;;1.10;;
27145;SDS011;17980;51.744;7.190;2023-11-21T15:02:23;0.77;;;0.67;;
27145;SDS011;17980;51.744;7.190;2023-11-21T15:05:00;1.43;;;0.67;;
27145;SDS011;17980;51.744;7.190;2023-11-21T15:07:28;0.90;;;0.80;;
27145;SDS011;17980;51.744;7.190;2023-11-21T15:12:44;2.17;;;0.90;;
27145;SDS011;17980;51.744;7.190;2023-11-21T15:15:11;0.80;;;0.80;;
27145;SDS011;17980;51.744;7.190;2023-11-21T15:17:48;1.50;;;1.40;;
27145;SDS011;17980;51.744;7.190;2023-11-21T15:22:52;2.43;;;0.93;;
27145;SDS011;17980;51.744;7.190;2023-11-21T15:25:19;1.57;;;0.97;;
27145;SDS011;17980;51.744;7.190;2023-11-21T15:27:47;2.43;;;1.40;;
27145;SDS011;17980;51.744;7.190;2023-11-21T15:32:56;1.77;;;1.33;;
27145;SDS011;17980;51.744;7.190;2023-11-21T15:35:24;1.20;;;1.10;;
27145;SDS011;17980;51.744;7.190;2023-11-21T15:37:53;1.17;;;0.80;;
27145;SDS011;17980;51.744;7.190;2023-11-21T15:40:23;0.97;;;0.67;;
27145;SDS011;17980;51.744;7.190;2023-11-21T15:43:00;1.43;;;1.20;;
27145;SDS011;17980;51.744;7.190;2023-11-21T15:45:31;0.63;;;0.53;;
27145;SDS011;17980;51.744;7.190;2023-11-21T15:47:58;1.37;;;1.27;;